sensor_id;sensor_type;location;lat;lon;timestamp;temperature;humidity
27384;DHT22;14851;51.166;4.760;2022-08-21T00:00:07;13.90;99.90
27384;DHT22;14851;51.166;4.760;2022-08-21T00:02:47;13.80;99.90
27384;DHT22;14851;51.166;4.760;2022-08-21T00:05:14;13.90;99.90
27384;DHT22;14851;51.166;4.760;2022-08-21T00:07:41;13.90;99.90
27384;DHT22;14851;51.166;4.760;2022-08-21T00:10:07;13.90;99.90
27384;DHT22;14851;51.166;4.760;2022-08-21T00:12:34;13.70;99.90
27384;DHT22;14851;51.166;4.760;2022-08-21T00:15:02;13.80;99.90
27384;DHT22;14851;51.166;4.760;2022-08-21T00:17:29;13.70;99.90
27384;DHT22;14851;51.166;4.760;2022-08-21T00:19:55;13.70;99.90
27384;DHT22;14851;51.166;4.760;2022-08-21T00:22:23;13.70;99.90
27384;DHT22;14851;51.166;4.760;2022-08-21T00:24:50;13.70;99.90
27384;DHT22;14851;51.166;4.760;2022-08-21T00:27:16;13.70;99.90
27384;DHT22;14851;51.166;4.760;2022-08-21T00:29:45;13.60;99.90
27384;DHT22;14851;51.166;4.760;2022-08-21T00:32:11;13.60;99.90
27384;DHT22;14851;51.166;4.760;2022-08-21T00:34:36;13.50;99.90
27384;DHT22;14851;51.166;4.760;2022-08-21T00:37:03;13.50;99.90
27384;DHT22;14851;51.166;4.760;2022-08-21T00:39:29;13.40;99.90
27384;DHT22;14851;51.166;4.760;2022-08-21T00:41:56;13.40;99.90
27384;DHT22;14851;51.166;4.760;2022-08-21T00:44:23;13.40;99.90
27384;DHT22;14851;51.166;4.760;2022-08-21T00:46:49;13.30;99.90
27384;DHT22;14851;51.166;4.760;2022-08-21T00:49:16;13.30;99.90
27384;DHT22;14851;51.166;4.760;2022-08-21T00:51:53;13.30;99.90
27384;DHT22;14851;51.166;4.760;2022-08-21T00:54:25;13.30;99.90
27384;DHT22;14851;51.166;4.760;2022-08-21T00:56:59;13.30;99.90
27384;DHT22;14851;51.166;4.760;2022-08-21T00:59:27;13.30;99.90
27384;DHT22;14851;51.166;4.760;2022-08-21T01:01:55;13.30;99.90
27384;DHT22;14851;51.166;4.760;2022-08-21T01:04:23;13.20;99.90
27384;DHT22;14851;51.166;4.760;2022-08-21T01:06:50;13.20;99.90
27384;DHT22;14851;51.166;4.760;2022-08-21T01:09:17;13.10;99.90
27384;DHT22;14851;51.166;4.760;2022-08-21T01:11:45;13.10;99.90
27384;DHT22;14851;51.166;4.760;2022-08-21T01:14:12;13.10;99.90
27384;DHT22;14851;51.166;4.760;2022-08-21T01:16:45;13.10;99.90
27384;DHT22;14851;51.166;4.760;2022-08-21T01:19:13;13.10;99.90
27384;DHT22;14851;51.166;4.760;2022-08-21T01:21:41;13.00;99.90
27384;DHT22;14851;51.166;4.760;2022-08-21T01:24:06;13.00;99.90
27384;DHT22;14851;51.166;4.760;2022-08-21T01:26:36;13.00;99.90
27384;DHT22;14851;51.166;4.760;2022-08-21T01:29:43;13.00;99.90
27384;DHT22;14851;51.166;4.760;2022-08-21T01:32:15;12.90;99.90
27384;DHT22;14851;51.166;4.760;2022-08-21T01:34:44;12.80;99.90
27384;DHT22;14851;51.166;4.760;2022-08-21T01:37:10;12.80;99.90
27384;DHT22;14851;51.166;4.760;2022-08-21T01:39:38;12.80;99.90
27384;DHT22;14851;51.166;4.760;2022-08-21T01:42:04;12.90;99.90
27384;DHT22;14851;51.166;4.760;2022-08-21T01:44:32;12.80;99.90
27384;DHT22;14851;51.166;4.760;2022-08-21T01:47:00;12.80;99.90
27384;DHT22;14851;51.166;4.760;2022-08-21T01:49:29;12.70;99.90
27384;DHT22;14851;51.166;4.760;2022-08-21T01:51:55;12.60;99.90
27384;DHT22;14851;51.166;4.760;2022-08-21T01:54:22;12.60;99.90
27384;DHT22;14851;51.166;4.760;2022-08-21T01:56:51;12.60;99.90
27384;DHT22;14851;51.166;4.760;2022-08-21T01:59:17;12.60;99.90
27384;DHT22;14851;51.166;4.760;2022-08-21T02:01:44;12.60;99.90
27384;DHT22;14851;51.166;4.760;2022-08-21T02:04:13;12.60;99.90
27384;DHT22;14851;51.166;4.760;2022-08-21T02:06:40;12.60;99.90
27384;DHT22;14851;51.166;4.760;2022-08-21T02:09:07;12.50;99.90
27384;DHT22;14851;51.166;4.760;2022-08-21T02:11:35;12.50;99.90
27384;DHT22;14851;51.166;4.760;2022-08-21T02:14:04;12.40;99.90
27384;DHT22;14851;51.166;4.760;2022-08-21T02:16:32;12.40;99.90
27384;DHT22;14851;51.166;4.760;2022-08-21T02:18:59;12.40;99.90
27384;DHT22;14851;51.166;4.760;2022-08-21T02:21:26;12.40;99.90
27384;DHT22;14851;51.166;4.760;2022-08-21T02:23:53;12.30;99.90
27384;DHT22;14851;51.166;4.760;2022-08-21T02:26:19;12.30;99.90
27384;DHT22;14851;51.166;4.760;2022-08-21T02:28:50;12.30;99.90
27384;DHT22;14851;51.166;4.760;2022-08-21T02:31:18;12.30;99.90
27384;DHT22;14851;51.166;4.760;2022-08-21T02:33:47;12.30;99.90
27384;DHT22;14851;51.166;4.760;2022-08-21T02:36:14;12.30;99.90
27384;DHT22;14851;51.166;4.760;2022-08-21T02:38:41;12.20;99.90
27384;DHT22;14851;51.166;4.760;2022-08-21T02:41:14;12.20;99.90
27384;DHT22;14851;51.166;4.760;2022-08-21T02:43:45;12.20;99.90
27384;DHT22;14851;51.166;4.760;2022-08-21T02:46:12;12.20;99.90
27384;DHT22;14851;51.166;4.760;2022-08-21T02:48:40;12.10;99.90
27384;DHT22;14851;51.166;4.760;2022-08-21T02:51:10;12.10;99.90
27384;DHT22;14851;51.166;4.760;2022-08-21T02:53:40;12.10;99.90
27384;DHT22;14851;51.166;4.760;2022-08-21T02:56:10;12.10;99.90
27384;DHT22;14851;51.166;4.760;2022-08-21T02:58:43;12.10;99.90
27384;DHT22;14851;51.166;4.760;2022-08-21T03:01:13;12.00;99.90
27384;DHT22;14851;51.166;4.760;2022-08-21T03:03:41;12.00;99.90
27384;DHT22;14851;51.166;4.760;2022-08-21T03:06:12;12.00;99.90
27384;DHT22;14851;51.166;4.760;2022-08-21T03:08:39;12.00;99.90
27384;DHT22;14851;51.166;4.760;2022-08-21T03:11:06;12.00;99.90
27384;DHT22;14851;51.166;4.760;2022-08-21T03:13:36;12.00;99.90
27384;DHT22;14851;51.166;4.760;2022-08-21T03:16:05;12.00;99.90
27384;DHT22;14851;51.166;4.760;2022-08-21T03:18:32;11.90;99.90
27384;DHT22;14851;51.166;4.760;2022-08-21T03:20:58;12.00;99.90
27384;DHT22;14851;51.166;4.760;2022-08-21T03:23:25;12.00;99.90
27384;DHT22;14851;51.166;4.760;2022-08-21T03:25:51;11.80;99.90
27384;DHT22;14851;51.166;4.760;2022-08-21T03:28:20;11.80;99.90
27384;DHT22;14851;51.166;4.760;2022-08-21T03:30:48;11.80;99.90
27384;DHT22;14851;51.166;4.760;2022-08-21T03:33:16;11.80;99.90
27384;DHT22;14851;51.166;4.760;2022-08-21T03:35:46;11.80;99.90
27384;DHT22;14851;51.166;4.760;2022-08-21T03:38:13;11.80;99.90
27384;DHT22;14851;51.166;4.760;2022-08-21T03:40:41;11.80;99.90
27384;DHT22;14851;51.166;4.760;2022-08-21T03:43:10;11.80;99.90
27384;DHT22;14851;51.166;4.760;2022-08-21T03:45:38;11.80;99.90
27384;DHT22;14851;51.166;4.760;2022-08-21T03:48:06;11.70;99.90
27384;DHT22;14851;51.166;4.760;2022-08-21T03:50:39;11.70;99.90
27384;DHT22;14851;51.166;4.760;2022-08-21T03:53:07;11.80;99.90
27384;DHT22;14851;51.166;4.760;2022-08-21T03:55:36;11.70;99.90
27384;DHT22;14851;51.166;4.760;2022-08-21T03:58:03;11.70;99.90
27384;DHT22;14851;51.166;4.760;2022-08-21T04:00:30;11.70;99.90
27384;DHT22;14851;51.166;4.760;2022-08-21T04:02:59;11.70;99.90
27384;DHT22;14851;51.166;4.760;2022-08-21T04:05:26;11.70;99.90
27384;DHT22;14851;51.166;4.760;2022-08-21T04:07:57;11.70;99.90
27384;DHT22;14851;51.166;4.760;2022-08-21T04:10:30;11.60;99.90
27384;DHT22;14851;51.166;4.760;2022-08-21T04:12:59;11.60;99.90
27384;DHT22;14851;51.166;4.760;2022-08-21T04:15:26;11.60;99.90
27384;DHT22;14851;51.166;4.760;2022-08-21T04:17:52;11.50;99.90
27384;DHT22;14851;51.166;4.760;2022-08-21T04:20:20;11.50;99.90
27384;DHT22;14851;51.166;4.760;2022-08-21T04:22:47;11.60;99.90
27384;DHT22;14851;51.166;4.760;2022-08-21T04:25:15;11.50;99.90
27384;DHT22;14851;51.166;4.760;2022-08-21T04:27:43;11.50;99.90
27384;DHT22;14851;51.166;4.760;2022-08-21T04:30:11;11.50;99.90
27384;DHT22;14851;51.166;4.760;2022-08-21T04:32:38;11.50;99.90
27384;DHT22;14851;51.166;4.760;2022-08-21T04:35:10;11.50;99.90
27384;DHT22;14851;51.166;4.760;2022-08-21T04:37:37;11.40;99.90
27384;DHT22;14851;51.166;4.760;2022-08-21T04:40:04;11.50;99.90
27384;DHT22;14851;51.166;4.760;2022-08-21T04:42:31;11.50;99.90
27384;DHT22;14851;51.166;4.760;2022-08-21T04:44:58;11.40;99.90
27384;DHT22;14851;51.166;4.760;2022-08-21T04:47:26;11.40;99.90
27384;DHT22;14851;51.166;4.760;2022-08-21T04:49:54;11.30;99.90
27384;DHT22;14851;51.166;4.760;2022-08-21T04:52:22;11.40;99.90
27384;DHT22;14851;51.166;4.760;2022-08-21T04:54:49;11.30;99.90
27384;DHT22;14851;51.166;4.760;2022-08-21T04:57:18;11.40;99.90
27384;DHT22;14851;51.166;4.760;2022-08-21T04:59:49;11.40;99.90
27384;DHT22;14851;51.166;4.760;2022-08-21T05:02:17;11.40;99.90
27384;DHT22;14851;51.166;4.760;2022-08-21T05:04:50;11.40;99.90
27384;DHT22;14851;51.166;4.760;2022-08-21T05:07:22;11.40;99.90
27384;DHT22;14851;51.166;4.760;2022-08-21T05:09:51;11.40;99.90
27384;DHT22;14851;51.166;4.760;2022-08-21T05:12:18;11.30;99.90
27384;DHT22;14851;51.166;4.760;2022-08-21T05:14:44;11.30;99.90
27384;DHT22;14851;51.166;4.760;2022-08-21T05:17:11;11.40;99.90
27384;DHT22;14851;51.166;4.760;2022-08-21T05:19:37;11.30;99.90
27384;DHT22;14851;51.166;4.760;2022-08-21T05:22:04;11.50;99.90
27384;DHT22;14851;51.166;4.760;2022-08-21T05:24:32;11.40;99.90
27384;DHT22;14851;51.166;4.760;2022-08-21T05:26:58;11.50;99.90
27384;DHT22;14851;51.166;4.760;2022-08-21T05:29:28;11.50;99.90
27384;DHT22;14851;51.166;4.760;2022-08-21T05:31:57;11.60;99.90
27384;DHT22;14851;51.166;4.760;2022-08-21T05:34:24;11.60;99.90
27384;DHT22;14851;51.166;4.760;2022-08-21T05:36:50;11.60;99.90
27384;DHT22;14851;51.166;4.760;2022-08-21T05:39:16;11.70;99.90
27384;DHT22;14851;51.166;4.760;2022-08-21T05:41:42;11.80;99.90
27384;DHT22;14851;51.166;4.760;2022-08-21T05:44:09;11.80;99.90
27384;DHT22;14851;51.166;4.760;2022-08-21T05:46:36;11.80;99.90
27384;DHT22;14851;51.166;4.760;2022-08-21T05:49:02;11.90;99.90
27384;DHT22;14851;51.166;4.760;2022-08-21T05:51:28;11.90;99.90
27384;DHT22;14851;51.166;4.760;2022-08-21T05:53:56;11.90;99.90
27384;DHT22;14851;51.166;4.760;2022-08-21T05:56:23;12.00;99.90
27384;DHT22;14851;51.166;4.760;2022-08-21T05:58:49;12.10;99.90
27384;DHT22;14851;51.166;4.760;2022-08-21T06:01:15;12.20;99.90
27384;DHT22;14851;51.166;4.760;2022-08-21T06:03:41;12.20;99.90
27384;DHT22;14851;51.166;4.760;2022-08-21T06:06:08;12.10;99.90
27384;DHT22;14851;51.166;4.760;2022-08-21T06:08:34;12.30;99.90
27384;DHT22;14851;51.166;4.760;2022-08-21T06:11:01;12.40;99.90
27384;DHT22;14851;51.166;4.760;2022-08-21T06:13:28;12.50;99.90
27384;DHT22;14851;51.166;4.760;2022-08-21T06:16:24;12.50;99.90
27384;DHT22;14851;51.166;4.760;2022-08-21T06:18:50;12.70;99.90
27384;DHT22;14851;51.166;4.760;2022-08-21T06:21:16;12.80;99.90
27384;DHT22;14851;51.166;4.760;2022-08-21T06:23:43;12.90;99.90
27384;DHT22;14851;51.166;4.760;2022-08-21T06:26:14;12.90;99.90
27384;DHT22;14851;51.166;4.760;2022-08-21T06:28:41;13.00;99.90
27384;DHT22;14851;51.166;4.760;2022-08-21T06:31:24;13.30;99.90
27384;DHT22;14851;51.166;4.760;2022-08-21T06:33:51;13.60;99.90
27384;DHT22;14851;51.166;4.760;2022-08-21T06:36:18;13.60;99.90
27384;DHT22;14851;51.166;4.760;2022-08-21T06:38:45;13.80;99.90
27384;DHT22;14851;51.166;4.760;2022-08-21T06:41:14;13.90;99.90
27384;DHT22;14851;51.166;4.760;2022-08-21T06:43:42;13.90;99.90
27384;DHT22;14851;51.166;4.760;2022-08-21T06:46:09;14.00;99.90
27384;DHT22;14851;51.166;4.760;2022-08-21T06:48:35;14.20;99.90
27384;DHT22;14851;51.166;4.760;2022-08-21T06:51:02;14.10;99.90
27384;DHT22;14851;51.166;4.760;2022-08-21T06:53:28;14.30;99.90
27384;DHT22;14851;51.166;4.760;2022-08-21T06:55:55;14.40;99.90
27384;DHT22;14851;51.166;4.760;2022-08-21T06:58:22;14.50;99.90
27384;DHT22;14851;51.166;4.760;2022-08-21T07:00:50;14.60;99.90
27384;DHT22;14851;51.166;4.760;2022-08-21T07:03:25;14.60;99.90
27384;DHT22;14851;51.166;4.760;2022-08-21T07:05:53;14.80;99.90
27384;DHT22;14851;51.166;4.760;2022-08-21T07:08:20;14.80;99.90
27384;DHT22;14851;51.166;4.760;2022-08-21T07:10:48;14.90;99.90
27384;DHT22;14851;51.166;4.760;2022-08-21T07:13:15;15.00;99.90
27384;DHT22;14851;51.166;4.760;2022-08-21T07:15:44;14.90;99.90
27384;DHT22;14851;51.166;4.760;2022-08-21T07:18:11;15.10;99.90
27384;DHT22;14851;51.166;4.760;2022-08-21T07:20:39;15.20;99.90
27384;DHT22;14851;51.166;4.760;2022-08-21T07:23:10;15.30;99.90
27384;DHT22;14851;51.166;4.760;2022-08-21T07:25:37;15.30;99.90
27384;DHT22;14851;51.166;4.760;2022-08-21T07:28:03;15.30;99.90
27384;DHT22;14851;51.166;4.760;2022-08-21T07:30:30;15.50;99.90
27384;DHT22;14851;51.166;4.760;2022-08-21T07:32:59;15.50;99.90
27384;DHT22;14851;51.166;4.760;2022-08-21T07:35:24;15.60;99.90
27384;DHT22;14851;51.166;4.760;2022-08-21T07:37:52;15.70;99.90
27384;DHT22;14851;51.166;4.760;2022-08-21T07:40:20;15.70;99.90
27384;DHT22;14851;51.166;4.760;2022-08-21T07:42:47;15.90;99.90
27384;DHT22;14851;51.166;4.760;2022-08-21T07:45:15;15.90;99.90
27384;DHT22;14851;51.166;4.760;2022-08-21T07:47:42;15.90;99.90
27384;DHT22;14851;51.166;4.760;2022-08-21T07:50:13;15.90;99.90
27384;DHT22;14851;51.166;4.760;2022-08-21T07:52:41;16.00;99.90
27384;DHT22;14851;51.166;4.760;2022-08-21T07:55:10;16.10;99.90
27384;DHT22;14851;51.166;4.760;2022-08-21T07:57:37;16.30;99.90
27384;DHT22;14851;51.166;4.760;2022-08-21T08:00:10;16.40;99.90
27384;DHT22;14851;51.166;4.760;2022-08-21T08:02:43;16.40;99.90
27384;DHT22;14851;51.166;4.760;2022-08-21T08:05:11;16.40;99.90
27384;DHT22;14851;51.166;4.760;2022-08-21T08:07:37;16.50;99.90
27384;DHT22;14851;51.166;4.760;2022-08-21T08:10:05;16.50;99.90
27384;DHT22;14851;51.166;4.760;2022-08-21T08:12:35;16.60;99.90
27384;DHT22;14851;51.166;4.760;2022-08-21T08:15:04;16.70;99.90
27384;DHT22;14851;51.166;4.760;2022-08-21T08:17:31;16.80;99.90
27384;DHT22;14851;51.166;4.760;2022-08-21T08:19:58;17.00;99.90
27384;DHT22;14851;51.166;4.760;2022-08-21T08:22:26;17.10;99.90
27384;DHT22;14851;51.166;4.760;2022-08-21T08:24:56;17.10;99.90
27384;DHT22;14851;51.166;4.760;2022-08-21T08:27:23;17.10;99.90
27384;DHT22;14851;51.166;4.760;2022-08-21T08:29:49;17.20;99.90
27384;DHT22;14851;51.166;4.760;2022-08-21T08:32:17;17.30;99.90
27384;DHT22;14851;51.166;4.760;2022-08-21T08:34:44;17.20;99.90
27384;DHT22;14851;51.166;4.760;2022-08-21T08:37:10;17.20;99.90
27384;DHT22;14851;51.166;4.760;2022-08-21T08:39:37;17.30;99.90
27384;DHT22;14851;51.166;4.760;2022-08-21T08:42:05;17.40;99.90
27384;DHT22;14851;51.166;4.760;2022-08-21T08:44:31;17.40;99.90
27384;DHT22;14851;51.166;4.760;2022-08-21T08:46:59;17.40;99.90
27384;DHT22;14851;51.166;4.760;2022-08-21T08:52:26;17.50;99.90
27384;DHT22;14851;51.166;4.760;2022-08-21T08:55:05;17.50;99.90
27384;DHT22;14851;51.166;4.760;2022-08-21T08:57:33;17.60;99.90
27384;DHT22;14851;51.166;4.760;2022-08-21T09:00:04;17.70;99.90
27384;DHT22;14851;51.166;4.760;2022-08-21T09:02:33;17.90;99.90
27384;DHT22;14851;51.166;4.760;2022-08-21T09:05:00;17.90;99.90
27384;DHT22;14851;51.166;4.760;2022-08-21T09:22:05;18.60;99.90
27384;DHT22;14851;51.166;4.760;2022-08-21T09:27:40;18.80;99.90
27384;DHT22;14851;51.166;4.760;2022-08-21T09:30:08;18.80;99.90
27384;DHT22;14851;51.166;4.760;2022-08-21T09:32:36;18.90;99.90
27384;DHT22;14851;51.166;4.760;2022-08-21T09:37:51;19.00;99.90
27384;DHT22;14851;51.166;4.760;2022-08-21T09:45:41;19.20;99.90
27384;DHT22;14851;51.166;4.760;2022-08-21T09:48:22;19.20;99.90
27384;DHT22;14851;51.166;4.760;2022-08-21T09:50:50;19.30;99.90
27384;DHT22;14851;51.166;4.760;2022-08-21T09:53:20;19.40;99.90
27384;DHT22;14851;51.166;4.760;2022-08-21T09:56:21;19.50;99.90
27384;DHT22;14851;51.166;4.760;2022-08-21T09:59:18;19.70;99.90
27384;DHT22;14851;51.166;4.760;2022-08-21T10:01:49;19.60;99.90
27384;DHT22;14851;51.166;4.760;2022-08-21T10:04:23;19.50;99.90
27384;DHT22;14851;51.166;4.760;2022-08-21T10:06:49;19.50;99.90
27384;DHT22;14851;51.166;4.760;2022-08-21T10:09:18;19.50;99.90
27384;DHT22;14851;51.166;4.760;2022-08-21T10:14:51;19.70;99.90
27384;DHT22;14851;51.166;4.760;2022-08-21T10:20:22;19.70;99.90
27384;DHT22;14851;51.166;4.760;2022-08-21T10:23:13;19.80;99.90
27384;DHT22;14851;51.166;4.760;2022-08-21T10:25:52;19.80;99.90
27384;DHT22;14851;51.166;4.760;2022-08-21T10:31:12;19.80;99.90
27384;DHT22;14851;51.166;4.760;2022-08-21T10:42:17;19.80;99.90
27384;DHT22;14851;51.166;4.760;2022-08-21T10:47:35;19.80;99.90
27384;DHT22;14851;51.166;4.760;2022-08-21T10:50:33;19.80;99.90
27384;DHT22;14851;51.166;4.760;2022-08-21T10:56:07;20.20;99.90
27384;DHT22;14851;51.166;4.760;2022-08-21T10:59:29;20.30;99.90
27384;DHT22;14851;51.166;4.760;2022-08-21T11:01:49;20.30;99.90
27384;DHT22;14851;51.166;4.760;2022-08-21T11:04:37;20.30;99.90
27384;DHT22;14851;51.166;4.760;2022-08-21T11:07:26;20.30;99.90
27384;DHT22;14851;51.166;4.760;2022-08-21T11:09:55;20.30;99.90
27384;DHT22;14851;51.166;4.760;2022-08-21T11:15:26;20.40;99.90
27384;DHT22;14851;51.166;4.760;2022-08-21T11:20:46;20.30;99.90
27384;DHT22;14851;51.166;4.760;2022-08-21T11:23:24;20.30;99.90
27384;DHT22;14851;51.166;4.760;2022-08-21T11:26:02;20.30;99.90
27384;DHT22;14851;51.166;4.760;2022-08-21T11:28:37;20.40;99.90
27384;DHT22;14851;51.166;4.760;2022-08-21T11:36:51;20.70;99.90
27384;DHT22;14851;51.166;4.760;2022-08-21T11:39:47;20.70;99.90
27384;DHT22;14851;51.166;4.760;2022-08-21T11:42:38;20.80;99.90
27384;DHT22;14851;51.166;4.760;2022-08-21T11:45:20;20.80;99.90
27384;DHT22;14851;51.166;4.760;2022-08-21T11:47:58;20.90;99.90
27384;DHT22;14851;51.166;4.760;2022-08-21T11:50:30;20.90;99.90
27384;DHT22;14851;51.166;4.760;2022-08-21T11:53:08;21.10;99.90
27384;DHT22;14851;51.166;4.760;2022-08-21T11:56:24;21.10;99.90
27384;DHT22;14851;51.166;4.760;2022-08-21T11:58:35;21.20;99.90
27384;DHT22;14851;51.166;4.760;2022-08-21T12:01:16;21.40;99.90
27384;DHT22;14851;51.166;4.760;2022-08-21T12:04:00;21.50;99.90
27384;DHT22;14851;51.166;4.760;2022-08-21T12:06:29;21.60;99.90
27384;DHT22;14851;51.166;4.760;2022-08-21T12:09:04;21.60;99.90
27384;DHT22;14851;51.166;4.760;2022-08-21T12:11:31;21.60;99.90
27384;DHT22;14851;51.166;4.760;2022-08-21T12:16:38;21.70;99.90
27384;DHT22;14851;51.166;4.760;2022-08-21T12:19:34;21.50;99.90
27384;DHT22;14851;51.166;4.760;2022-08-21T12:22:11;21.70;99.90
27384;DHT22;14851;51.166;4.760;2022-08-21T12:24:39;21.60;99.90
27384;DHT22;14851;51.166;4.760;2022-08-21T12:27:27;21.70;99.90
27384;DHT22;14851;51.166;4.760;2022-08-21T12:30:06;21.70;99.90
27384;DHT22;14851;51.166;4.760;2022-08-21T12:32:45;21.70;99.90
27384;DHT22;14851;51.166;4.760;2022-08-21T12:35:18;21.60;99.90
27384;DHT22;14851;51.166;4.760;2022-08-21T12:37:49;21.80;99.90
27384;DHT22;14851;51.166;4.760;2022-08-21T12:40:33;21.90;99.90
27384;DHT22;14851;51.166;4.760;2022-08-21T12:43:03;21.80;99.90
27384;DHT22;14851;51.166;4.760;2022-08-21T12:45:43;21.70;99.90
27384;DHT22;14851;51.166;4.760;2022-08-21T12:48:18;21.80;99.90
27384;DHT22;14851;51.166;4.760;2022-08-21T12:50:50;21.90;99.90
27384;DHT22;14851;51.166;4.760;2022-08-21T12:53:44;21.90;99.90
27384;DHT22;14851;51.166;4.760;2022-08-21T12:56:18;22.00;99.90
27384;DHT22;14851;51.166;4.760;2022-08-21T12:59:00;22.00;99.90
27384;DHT22;14851;51.166;4.760;2022-08-21T13:01:48;22.00;99.90
27384;DHT22;14851;51.166;4.760;2022-08-21T13:04:39;22.00;99.90
27384;DHT22;14851;51.166;4.760;2022-08-21T13:07:08;22.00;99.90
27384;DHT22;14851;51.166;4.760;2022-08-21T13:09:49;21.90;99.90
27384;DHT22;14851;51.166;4.760;2022-08-21T13:12:17;22.00;99.90
27384;DHT22;14851;51.166;4.760;2022-08-21T13:14:49;21.90;99.90
27384;DHT22;14851;51.166;4.760;2022-08-21T13:17:20;22.00;99.90
27384;DHT22;14851;51.166;4.760;2022-08-21T13:20:18;22.00;99.90
27384;DHT22;14851;51.166;4.760;2022-08-21T13:22:46;21.90;99.90
27384;DHT22;14851;51.166;4.760;2022-08-21T13:25:15;22.00;99.90
27384;DHT22;14851;51.166;4.760;2022-08-21T13:28:19;22.10;99.90
27384;DHT22;14851;51.166;4.760;2022-08-21T13:30:48;22.10;99.90
27384;DHT22;14851;51.166;4.760;2022-08-21T13:33:18;22.10;99.90
27384;DHT22;14851;51.166;4.760;2022-08-21T13:38:28;22.30;99.90
27384;DHT22;14851;51.166;4.760;2022-08-21T13:41:02;22.30;99.90
27384;DHT22;14851;51.166;4.760;2022-08-21T13:43:34;22.40;99.90
27384;DHT22;14851;51.166;4.760;2022-08-21T13:46:07;22.30;99.90
27384;DHT22;14851;51.166;4.760;2022-08-21T13:48:35;22.20;99.90
27384;DHT22;14851;51.166;4.760;2022-08-21T13:51:02;22.30;99.90
27384;DHT22;14851;51.166;4.760;2022-08-21T13:53:48;22.60;99.90
27384;DHT22;14851;51.166;4.760;2022-08-21T13:56:30;22.70;99.90
27384;DHT22;14851;51.166;4.760;2022-08-21T13:58:58;22.70;99.90
27384;DHT22;14851;51.166;4.760;2022-08-21T14:01:33;22.70;99.90
27384;DHT22;14851;51.166;4.760;2022-08-21T14:04:14;22.70;99.90
27384;DHT22;14851;51.166;4.760;2022-08-21T14:06:42;22.70;99.90
27384;DHT22;14851;51.166;4.760;2022-08-21T14:09:13;22.70;99.90
27384;DHT22;14851;51.166;4.760;2022-08-21T14:11:49;22.70;99.90
27384;DHT22;14851;51.166;4.760;2022-08-21T14:14:32;22.60;99.90
27384;DHT22;14851;51.166;4.760;2022-08-21T14:17:04;22.60;99.90
27384;DHT22;14851;51.166;4.760;2022-08-21T14:19:41;22.60;99.90
27384;DHT22;14851;51.166;4.760;2022-08-21T14:22:43;22.60;99.90
27384;DHT22;14851;51.166;4.760;2022-08-21T14:25:29;22.60;99.90
27384;DHT22;14851;51.166;4.760;2022-08-21T14:28:27;22.60;99.90
27384;DHT22;14851;51.166;4.760;2022-08-21T14:30:55;22.60;99.90
27384;DHT22;14851;51.166;4.760;2022-08-21T14:33:29;22.80;99.90
27384;DHT22;14851;51.166;4.760;2022-08-21T14:35:57;22.90;99.90
27384;DHT22;14851;51.166;4.760;2022-08-21T14:38:25;23.00;99.90
27384;DHT22;14851;51.166;4.760;2022-08-21T14:40:57;23.10;99.90
27384;DHT22;14851;51.166;4.760;2022-08-21T14:43:26;23.10;99.90
27384;DHT22;14851;51.166;4.760;2022-08-21T14:45:53;23.00;99.90
27384;DHT22;14851;51.166;4.760;2022-08-21T14:48:19;23.00;99.90
27384;DHT22;14851;51.166;4.760;2022-08-21T14:50:46;23.00;99.90
27384;DHT22;14851;51.166;4.760;2022-08-21T14:53:12;23.00;99.90
27384;DHT22;14851;51.166;4.760;2022-08-21T14:55:41;23.10;99.90
27384;DHT22;14851;51.166;4.760;2022-08-21T14:58:26;23.00;99.90
27384;DHT22;14851;51.166;4.760;2022-08-21T15:00:55;23.00;99.90
27384;DHT22;14851;51.166;4.760;2022-08-21T15:03:23;23.00;99.90
27384;DHT22;14851;51.166;4.760;2022-08-21T15:05:49;23.00;99.90
27384;DHT22;14851;51.166;4.760;2022-08-21T15:08:17;23.00;99.90
27384;DHT22;14851;51.166;4.760;2022-08-21T15:10:43;22.90;99.90
27384;DHT22;14851;51.166;4.760;2022-08-21T15:13:11;22.90;99.90
27384;DHT22;14851;51.166;4.760;2022-08-21T15:15:43;22.90;99.90
27384;DHT22;14851;51.166;4.760;2022-08-21T15:18:10;22.90;99.90
27384;DHT22;14851;51.166;4.760;2022-08-21T15:20:36;22.90;99.90
27384;DHT22;14851;51.166;4.760;2022-08-21T15:23:07;23.00;99.90
27384;DHT22;14851;51.166;4.760;2022-08-21T15:25:35;22.90;99.90
27384;DHT22;14851;51.166;4.760;2022-08-21T15:28:03;22.80;99.90
27384;DHT22;14851;51.166;4.760;2022-08-21T15:30:30;22.80;99.90
27384;DHT22;14851;51.166;4.760;2022-08-21T15:32:59;22.80;99.90
27384;DHT22;14851;51.166;4.760;2022-08-21T15:35:26;22.80;99.90
27384;DHT22;14851;51.166;4.760;2022-08-21T15:37:52;22.80;99.90
27384;DHT22;14851;51.166;4.760;2022-08-21T15:40:21;22.80;99.90
27384;DHT22;14851;51.166;4.760;2022-08-21T15:42:48;22.80;99.90
27384;DHT22;14851;51.166;4.760;2022-08-21T15:45:19;22.70;99.90
27384;DHT22;14851;51.166;4.760;2022-08-21T15:47:49;22.70;99.90
27384;DHT22;14851;51.166;4.760;2022-08-21T15:50:15;22.80;99.90
27384;DHT22;14851;51.166;4.760;2022-08-21T15:52:42;22.80;99.90
27384;DHT22;14851;51.166;4.760;2022-08-21T15:55:08;22.80;99.90
27384;DHT22;14851;51.166;4.760;2022-08-21T15:57:46;22.70;99.90
27384;DHT22;14851;51.166;4.760;2022-08-21T16:00:16;22.70;99.90
27384;DHT22;14851;51.166;4.760;2022-08-21T16:02:47;22.70;99.90
27384;DHT22;14851;51.166;4.760;2022-08-21T16:05:14;22.70;99.90
27384;DHT22;14851;51.166;4.760;2022-08-21T16:07:43;22.70;99.90
27384;DHT22;14851;51.166;4.760;2022-08-21T16:10:10;22.70;99.90
27384;DHT22;14851;51.166;4.760;2022-08-21T16:12:41;22.70;99.90
27384;DHT22;14851;51.166;4.760;2022-08-21T16:15:10;22.80;99.90
27384;DHT22;14851;51.166;4.760;2022-08-21T16:17:41;22.80;99.90
27384;DHT22;14851;51.166;4.760;2022-08-21T16:20:15;22.80;99.90
27384;DHT22;14851;51.166;4.760;2022-08-21T16:22:41;22.80;99.90
27384;DHT22;14851;51.166;4.760;2022-08-21T16:25:07;22.80;99.90
27384;DHT22;14851;51.166;4.760;2022-08-21T16:27:35;22.80;99.90
27384;DHT22;14851;51.166;4.760;2022-08-21T16:30:03;22.70;99.90
27384;DHT22;14851;51.166;4.760;2022-08-21T16:32:31;22.70;99.90
27384;DHT22;14851;51.166;4.760;2022-08-21T16:34:58;22.70;99.90
27384;DHT22;14851;51.166;4.760;2022-08-21T16:37:25;22.70;99.90
27384;DHT22;14851;51.166;4.760;2022-08-21T16:39:51;22.70;99.90
27384;DHT22;14851;51.166;4.760;2022-08-21T16:42:22;22.70;99.90
27384;DHT22;14851;51.166;4.760;2022-08-21T16:44:49;22.70;99.90
27384;DHT22;14851;51.166;4.760;2022-08-21T16:47:15;22.70;99.90
27384;DHT22;14851;51.166;4.760;2022-08-21T16:49:43;22.60;99.90
27384;DHT22;14851;51.166;4.760;2022-08-21T16:52:11;22.60;99.90
27384;DHT22;14851;51.166;4.760;2022-08-21T16:54:37;22.60;99.90
27384;DHT22;14851;51.166;4.760;2022-08-21T16:57:07;22.50;99.90
27384;DHT22;14851;51.166;4.760;2022-08-21T16:59:35;22.50;99.90